sensor_id;sensor_type;location;lat;lon;timestamp;temperature;humidity
30520;DHT22;17300;50.374;8.006;2022-08-19T00:00:57;24.50;52.60
30520;DHT22;17300;50.374;8.006;2022-08-19T00:03:25;24.50;52.60
30520;DHT22;17300;50.374;8.006;2022-08-19T00:05:52;24.50;52.70
30520;DHT22;17300;50.374;8.006;2022-08-19T00:08:19;24.50;52.60
30520;DHT22;17300;50.374;8.006;2022-08-19T00:10:45;24.50;52.60
30520;DHT22;17300;50.374;8.006;2022-08-19T00:13:13;24.50;52.60
30520;DHT22;17300;50.374;8.006;2022-08-19T00:15:42;24.50;52.70
30520;DHT22;17300;50.374;8.006;2022-08-19T00:18:10;24.50;52.70
30520;DHT22;17300;50.374;8.006;2022-08-19T00:20:38;24.40;52.70
30520;DHT22;17300;50.374;8.006;2022-08-19T00:23:05;24.40;52.70
30520;DHT22;17300;50.374;8.006;2022-08-19T00:25:32;24.40;52.70
30520;DHT22;17300;50.374;8.006;2022-08-19T00:27:59;24.40;52.70
30520;DHT22;17300;50.374;8.006;2022-08-19T00:30:26;24.30;52.70
30520;DHT22;17300;50.374;8.006;2022-08-19T00:32:53;24.30;52.80
30520;DHT22;17300;50.374;8.006;2022-08-19T00:35:21;24.30;52.90
30520;DHT22;17300;50.374;8.006;2022-08-19T00:37:49;24.30;53.00
30520;DHT22;17300;50.374;8.006;2022-08-19T00:40:16;24.30;53.10
30520;DHT22;17300;50.374;8.006;2022-08-19T00:42:44;24.20;53.00
30520;DHT22;17300;50.374;8.006;2022-08-19T00:45:15;24.20;53.00
30520;DHT22;17300;50.374;8.006;2022-08-19T00:47:43;24.20;53.20
30520;DHT22;17300;50.374;8.006;2022-08-19T00:50:11;24.20;53.20
30520;DHT22;17300;50.374;8.006;2022-08-19T00:52:41;24.20;53.30
30520;DHT22;17300;50.374;8.006;2022-08-19T00:55:14;24.20;54.00
30520;DHT22;17300;50.374;8.006;2022-08-19T00:57:45;24.20;53.50
30520;DHT22;17300;50.374;8.006;2022-08-19T01:00:15;24.20;53.50
30520;DHT22;17300;50.374;8.006;2022-08-19T01:02:43;24.20;53.60
30520;DHT22;17300;50.374;8.006;2022-08-19T01:05:14;24.20;53.60
30520;DHT22;17300;50.374;8.006;2022-08-19T01:07:43;24.20;53.70
30520;DHT22;17300;50.374;8.006;2022-08-19T01:10:14;24.20;53.70
30520;DHT22;17300;50.374;8.006;2022-08-19T01:12:42;24.20;53.80
30520;DHT22;17300;50.374;8.006;2022-08-19T01:15:21;24.20;53.80
30520;DHT22;17300;50.374;8.006;2022-08-19T01:18:04;24.20;53.90
30520;DHT22;17300;50.374;8.006;2022-08-19T01:20:43;24.20;54.10
30520;DHT22;17300;50.374;8.006;2022-08-19T01:23:27;24.30;54.10
30520;DHT22;17300;50.374;8.006;2022-08-19T01:26:17;24.30;54.10
30520;DHT22;17300;50.374;8.006;2022-08-19T01:29:15;24.30;53.90
30520;DHT22;17300;50.374;8.006;2022-08-19T01:32:07;24.30;54.00
30520;DHT22;17300;50.374;8.006;2022-08-19T01:34:45;24.30;53.80
30520;DHT22;17300;50.374;8.006;2022-08-19T01:37:26;24.30;53.80
30520;DHT22;17300;50.374;8.006;2022-08-19T01:40:00;24.30;53.90
30520;DHT22;17300;50.374;8.006;2022-08-19T01:42:27;24.20;53.80
30520;DHT22;17300;50.374;8.006;2022-08-19T01:44:59;24.20;53.60
30520;DHT22;17300;50.374;8.006;2022-08-19T01:47:30;24.10;53.40
30520;DHT22;17300;50.374;8.006;2022-08-19T01:50:19;24.10;53.50
30520;DHT22;17300;50.374;8.006;2022-08-19T01:52:59;24.10;53.70
30520;DHT22;17300;50.374;8.006;2022-08-19T01:55:40;24.00;53.70
30520;DHT22;17300;50.374;8.006;2022-08-19T01:58:24;24.00;53.70
30520;DHT22;17300;50.374;8.006;2022-08-19T02:01:01;23.90;53.60
30520;DHT22;17300;50.374;8.006;2022-08-19T02:03:44;23.90;53.50
30520;DHT22;17300;50.374;8.006;2022-08-19T02:09:17;23.80;53.70
30520;DHT22;17300;50.374;8.006;2022-08-19T02:12:02;23.80;53.80
30520;DHT22;17300;50.374;8.006;2022-08-19T02:14:44;23.80;54.00
30520;DHT22;17300;50.374;8.006;2022-08-19T02:17:27;23.70;53.90
30520;DHT22;17300;50.374;8.006;2022-08-19T02:20:17;23.70;53.90
30520;DHT22;17300;50.374;8.006;2022-08-19T02:23:04;23.70;54.40
30520;DHT22;17300;50.374;8.006;2022-08-19T02:25:45;23.70;54.50
30520;DHT22;17300;50.374;8.006;2022-08-19T02:28:15;23.70;54.50
30520;DHT22;17300;50.374;8.006;2022-08-19T02:30:43;23.70;54.30
30520;DHT22;17300;50.374;8.006;2022-08-19T02:33:15;23.70;54.20
30520;DHT22;17300;50.374;8.006;2022-08-19T02:35:47;23.70;54.50
30520;DHT22;17300;50.374;8.006;2022-08-19T02:38:23;23.70;54.40
30520;DHT22;17300;50.374;8.006;2022-08-19T02:41:03;23.70;54.30
30520;DHT22;17300;50.374;8.006;2022-08-19T02:43:32;23.70;54.30
30520;DHT22;17300;50.374;8.006;2022-08-19T02:46:14;23.70;54.10
30520;DHT22;17300;50.374;8.006;2022-08-19T02:48:51;23.60;54.20
30520;DHT22;17300;50.374;8.006;2022-08-19T02:51:41;23.60;54.00
30520;DHT22;17300;50.374;8.006;2022-08-19T02:54:10;23.60;54.20
30520;DHT22;17300;50.374;8.006;2022-08-19T02:56:42;23.50;54.00
30520;DHT22;17300;50.374;8.006;2022-08-19T02:59:25;23.50;54.10
30520;DHT22;17300;50.374;8.006;2022-08-19T03:02:06;23.50;55.00
30520;DHT22;17300;50.374;8.006;2022-08-19T03:04:40;23.40;54.30
30520;DHT22;17300;50.374;8.006;2022-08-19T03:07:22;23.40;54.30
30520;DHT22;17300;50.374;8.006;2022-08-19T03:10:15;23.40;54.60
30520;DHT22;17300;50.374;8.006;2022-08-19T03:12:49;23.30;54.70
30520;DHT22;17300;50.374;8.006;2022-08-19T03:15:25;23.20;54.20
30520;DHT22;17300;50.374;8.006;2022-08-19T03:18:02;23.20;54.60
30520;DHT22;17300;50.374;8.006;2022-08-19T03:20:48;23.20;54.80
30520;DHT22;17300;50.374;8.006;2022-08-19T03:23:23;23.10;54.80
30520;DHT22;17300;50.374;8.006;2022-08-19T03:26:06;23.10;55.00
30520;DHT22;17300;50.374;8.006;2022-08-19T03:28:34;23.10;55.20
30520;DHT22;17300;50.374;8.006;2022-08-19T03:31:21;23.00;54.80
30520;DHT22;17300;50.374;8.006;2022-08-19T03:34:02;23.00;54.90
30520;DHT22;17300;50.374;8.006;2022-08-19T03:36:35;23.00;55.20
30520;DHT22;17300;50.374;8.006;2022-08-19T03:39:10;23.00;55.00
30520;DHT22;17300;50.374;8.006;2022-08-19T03:41:51;22.90;55.10
30520;DHT22;17300;50.374;8.006;2022-08-19T03:44:26;22.90;55.00
30520;DHT22;17300;50.374;8.006;2022-08-19T03:47:12;22.90;55.10
30520;DHT22;17300;50.374;8.006;2022-08-19T03:49:54;22.80;55.20
30520;DHT22;17300;50.374;8.006;2022-08-19T03:52:28;22.80;55.40
30520;DHT22;17300;50.374;8.006;2022-08-19T03:55:07;22.80;55.10
30520;DHT22;17300;50.374;8.006;2022-08-19T03:57:39;22.70;55.40
30520;DHT22;17300;50.374;8.006;2022-08-19T04:00:18;22.70;55.30
30520;DHT22;17300;50.374;8.006;2022-08-19T04:03:00;22.70;55.40
30520;DHT22;17300;50.374;8.006;2022-08-19T04:05:42;22.70;55.80
30520;DHT22;17300;50.374;8.006;2022-08-19T04:08:14;22.70;55.50
30520;DHT22;17300;50.374;8.006;2022-08-19T04:10:51;22.60;55.60
30520;DHT22;17300;50.374;8.006;2022-08-19T04:13:47;22.60;55.70
30520;DHT22;17300;50.374;8.006;2022-08-19T04:16:29;22.60;56.10
30520;DHT22;17300;50.374;8.006;2022-08-19T04:22:09;22.50;56.20
30520;DHT22;17300;50.374;8.006;2022-08-19T04:25:01;22.50;55.90
30520;DHT22;17300;50.374;8.006;2022-08-19T04:28:12;22.50;56.20
30520;DHT22;17300;50.374;8.006;2022-08-19T04:30:48;22.50;56.40
30520;DHT22;17300;50.374;8.006;2022-08-19T04:33:48;22.50;56.20
30520;DHT22;17300;50.374;8.006;2022-08-19T04:36:25;22.40;56.40
30520;DHT22;17300;50.374;8.006;2022-08-19T04:38:57;22.40;56.20
30520;DHT22;17300;50.374;8.006;2022-08-19T04:41:42;22.40;56.10
30520;DHT22;17300;50.374;8.006;2022-08-19T04:44:32;22.40;56.60
30520;DHT22;17300;50.374;8.006;2022-08-19T04:47:26;22.40;56.30
30520;DHT22;17300;50.374;8.006;2022-08-19T04:50:06;22.30;56.20
30520;DHT22;17300;50.374;8.006;2022-08-19T04:52:39;22.30;56.50
30520;DHT22;17300;50.374;8.006;2022-08-19T04:55:11;22.40;56.50
30520;DHT22;17300;50.374;8.006;2022-08-19T04:57:49;22.30;56.40
30520;DHT22;17300;50.374;8.006;2022-08-19T05:00:17;22.30;56.50
30520;DHT22;17300;50.374;8.006;2022-08-19T05:02:57;22.30;56.50
30520;DHT22;17300;50.374;8.006;2022-08-19T05:05:41;22.40;56.60
30520;DHT22;17300;50.374;8.006;2022-08-19T05:08:22;22.40;57.00
30520;DHT22;17300;50.374;8.006;2022-08-19T05:10:56;22.40;56.90
30520;DHT22;17300;50.374;8.006;2022-08-19T05:13:48;22.40;56.60
30520;DHT22;17300;50.374;8.006;2022-08-19T05:16:41;22.40;56.90
30520;DHT22;17300;50.374;8.006;2022-08-19T05:19:20;22.50;56.90
30520;DHT22;17300;50.374;8.006;2022-08-19T05:22:07;22.50;57.00
30520;DHT22;17300;50.374;8.006;2022-08-19T05:25:05;22.50;56.70
30520;DHT22;17300;50.374;8.006;2022-08-19T05:27:44;22.60;56.90
30520;DHT22;17300;50.374;8.006;2022-08-19T05:30:31;22.60;56.80
30520;DHT22;17300;50.374;8.006;2022-08-19T05:33:19;22.70;56.80
30520;DHT22;17300;50.374;8.006;2022-08-19T05:35:59;22.80;57.10
30520;DHT22;17300;50.374;8.006;2022-08-19T05:38:32;22.80;57.00
30520;DHT22;17300;50.374;8.006;2022-08-19T05:41:14;22.90;57.00
30520;DHT22;17300;50.374;8.006;2022-08-19T05:43:45;23.10;57.20
30520;DHT22;17300;50.374;8.006;2022-08-19T05:46:21;23.10;57.10
30520;DHT22;17300;50.374;8.006;2022-08-19T05:48:51;23.30;57.20
30520;DHT22;17300;50.374;8.006;2022-08-19T05:51:26;23.40;57.30
30520;DHT22;17300;50.374;8.006;2022-08-19T05:54:10;23.50;57.30
30520;DHT22;17300;50.374;8.006;2022-08-19T05:56:42;23.60;57.20
30520;DHT22;17300;50.374;8.006;2022-08-19T05:59:22;23.80;57.20
30520;DHT22;17300;50.374;8.006;2022-08-19T06:01:55;23.90;57.00
30520;DHT22;17300;50.374;8.006;2022-08-19T06:04:31;24.00;57.00
30520;DHT22;17300;50.374;8.006;2022-08-19T06:06:58;24.20;56.80
30520;DHT22;17300;50.374;8.006;2022-08-19T06:09:29;24.30;56.80
30520;DHT22;17300;50.374;8.006;2022-08-19T06:12:05;24.40;56.70
30520;DHT22;17300;50.374;8.006;2022-08-19T06:14:39;24.60;56.70
30520;DHT22;17300;50.374;8.006;2022-08-19T06:17:09;24.80;56.80
30520;DHT22;17300;50.374;8.006;2022-08-19T06:19:56;25.00;57.30
30520;DHT22;17300;50.374;8.006;2022-08-19T06:25:44;25.40;56.10
30520;DHT22;17300;50.374;8.006;2022-08-19T06:28:24;25.70;55.50
30520;DHT22;17300;50.374;8.006;2022-08-19T06:31:10;25.80;55.20
30520;DHT22;17300;50.374;8.006;2022-08-19T06:43:45;26.40;54.10
30520;DHT22;17300;50.374;8.006;2022-08-19T06:46:44;26.50;54.50
30520;DHT22;17300;50.374;8.006;2022-08-19T06:49:20;26.70;53.90
30520;DHT22;17300;50.374;8.006;2022-08-19T06:51:57;26.80;54.20
30520;DHT22;17300;50.374;8.006;2022-08-19T06:54:51;26.90;54.00
30520;DHT22;17300;50.374;8.006;2022-08-19T06:58:37;27.10;53.40
30520;DHT22;17300;50.374;8.006;2022-08-19T07:07:54;27.70;53.30
30520;DHT22;17300;50.374;8.006;2022-08-19T07:10:46;28.00;54.10
30520;DHT22;17300;50.374;8.006;2022-08-19T07:16:26;28.80;53.40
30520;DHT22;17300;50.374;8.006;2022-08-19T07:18:53;29.10;54.00
30520;DHT22;17300;50.374;8.006;2022-08-19T07:21:23;29.50;53.60
30520;DHT22;17300;50.374;8.006;2022-08-19T07:23:54;29.90;52.90
30520;DHT22;17300;50.374;8.006;2022-08-19T07:31:32;30.90;50.70
30520;DHT22;17300;50.374;8.006;2022-08-19T07:34:03;31.10;51.30
30520;DHT22;17300;50.374;8.006;2022-08-19T07:36:33;31.50;51.10
30520;DHT22;17300;50.374;8.006;2022-08-19T07:39:05;32.00;51.40
30520;DHT22;17300;50.374;8.006;2022-08-19T07:41:34;32.60;50.80
30520;DHT22;17300;50.374;8.006;2022-08-19T07:44:03;33.30;51.10
30520;DHT22;17300;50.374;8.006;2022-08-19T07:46:30;34.10;50.60
30520;DHT22;17300;50.374;8.006;2022-08-19T07:48:57;34.80;49.80
30520;DHT22;17300;50.374;8.006;2022-08-19T07:51:26;35.60;48.80
30520;DHT22;17300;50.374;8.006;2022-08-19T07:53:54;36.30;47.50
30520;DHT22;17300;50.374;8.006;2022-08-19T07:56:22;37.10;47.10
30520;DHT22;17300;50.374;8.006;2022-08-19T07:58:51;37.70;44.90
30520;DHT22;17300;50.374;8.006;2022-08-19T08:01:20;38.30;43.70
30520;DHT22;17300;50.374;8.006;2022-08-19T08:03:47;38.90;42.40
30520;DHT22;17300;50.374;8.006;2022-08-19T08:06:32;39.40;41.50
30520;DHT22;17300;50.374;8.006;2022-08-19T08:09:22;39.90;40.70
30520;DHT22;17300;50.374;8.006;2022-08-19T08:11:53;40.20;39.10
30520;DHT22;17300;50.374;8.006;2022-08-19T08:14:22;40.60;38.90
30520;DHT22;17300;50.374;8.006;2022-08-19T08:16:50;40.90;38.50
30520;DHT22;17300;50.374;8.006;2022-08-19T08:19:19;41.30;38.00
30520;DHT22;17300;50.374;8.006;2022-08-19T08:21:47;41.70;37.30
30520;DHT22;17300;50.374;8.006;2022-08-19T08:24:14;42.00;36.70
30520;DHT22;17300;50.374;8.006;2022-08-19T08:26:41;42.30;36.00
30520;DHT22;17300;50.374;8.006;2022-08-19T08:29:10;42.60;35.60
30520;DHT22;17300;50.374;8.006;2022-08-19T08:31:39;42.90;35.10
30520;DHT22;17300;50.374;8.006;2022-08-19T08:34:06;43.20;34.70
30520;DHT22;17300;50.374;8.006;2022-08-19T08:36:36;43.50;34.20
30520;DHT22;17300;50.374;8.006;2022-08-19T08:39:07;43.90;33.30
30520;DHT22;17300;50.374;8.006;2022-08-19T08:41:37;44.00;32.80
30520;DHT22;17300;50.374;8.006;2022-08-19T08:44:06;44.20;32.20
30520;DHT22;17300;50.374;8.006;2022-08-19T08:46:38;44.50;32.20
30520;DHT22;17300;50.374;8.006;2022-08-19T08:49:19;44.70;31.50
30520;DHT22;17300;50.374;8.006;2022-08-19T08:51:50;45.00;31.40
30520;DHT22;17300;50.374;8.006;2022-08-19T08:54:20;45.30;31.20
30520;DHT22;17300;50.374;8.006;2022-08-19T08:56:51;45.60;30.60
30520;DHT22;17300;50.374;8.006;2022-08-19T08:59:26;45.80;30.00
30520;DHT22;17300;50.374;8.006;2022-08-19T09:01:56;46.10;29.30
30520;DHT22;17300;50.374;8.006;2022-08-19T09:04:22;46.20;29.20
30520;DHT22;17300;50.374;8.006;2022-08-19T09:06:54;46.30;28.90
30520;DHT22;17300;50.374;8.006;2022-08-19T09:09:26;46.40;28.40
30520;DHT22;17300;50.374;8.006;2022-08-19T09:12:04;46.50;28.20
30520;DHT22;17300;50.374;8.006;2022-08-19T09:14:39;46.50;28.30
30520;DHT22;17300;50.374;8.006;2022-08-19T09:17:09;46.70;28.10
30520;DHT22;17300;50.374;8.006;2022-08-19T09:19:48;46.90;28.20
30520;DHT22;17300;50.374;8.006;2022-08-19T09:22:15;47.10;27.90
30520;DHT22;17300;50.374;8.006;2022-08-19T09:24:42;47.30;27.90
30520;DHT22;17300;50.374;8.006;2022-08-19T09:27:09;47.50;27.70
30520;DHT22;17300;50.374;8.006;2022-08-19T09:29:36;47.60;27.00
30520;DHT22;17300;50.374;8.006;2022-08-19T09:32:03;47.70;26.90
30520;DHT22;17300;50.374;8.006;2022-08-19T09:34:32;47.80;26.80
30520;DHT22;17300;50.374;8.006;2022-08-19T09:36:59;48.00;26.40
30520;DHT22;17300;50.374;8.006;2022-08-19T09:39:32;48.10;26.20
30520;DHT22;17300;50.374;8.006;2022-08-19T09:41:59;48.40;25.60
30520;DHT22;17300;50.374;8.006;2022-08-19T09:44:25;48.60;25.90
30520;DHT22;17300;50.374;8.006;2022-08-19T09:46:52;48.80;25.60
30520;DHT22;17300;50.374;8.006;2022-08-19T09:49:19;48.90;25.10
30520;DHT22;17300;50.374;8.006;2022-08-19T09:51:51;49.00;24.90
30520;DHT22;17300;50.374;8.006;2022-08-19T09:54:21;49.10;24.80
30520;DHT22;17300;50.374;8.006;2022-08-19T09:56:48;49.20;24.90
30520;DHT22;17300;50.374;8.006;2022-08-19T09:59:15;49.40;24.90
30520;DHT22;17300;50.374;8.006;2022-08-19T10:01:42;49.40;24.30
30520;DHT22;17300;50.374;8.006;2022-08-19T10:04:08;49.40;24.00
30520;DHT22;17300;50.374;8.006;2022-08-19T10:06:37;49.30;24.10
30520;DHT22;17300;50.374;8.006;2022-08-19T10:09:07;49.20;23.90
30520;DHT22;17300;50.374;8.006;2022-08-19T10:11:35;49.10;23.70
30520;DHT22;17300;50.374;8.006;2022-08-19T10:14:03;49.00;23.70
30520;DHT22;17300;50.374;8.006;2022-08-19T10:16:31;49.00;23.80
30520;DHT22;17300;50.374;8.006;2022-08-19T10:18:58;48.90;23.60
30520;DHT22;17300;50.374;8.006;2022-08-19T10:21:26;48.90;23.50
30520;DHT22;17300;50.374;8.006;2022-08-19T10:23:57;48.80;23.40
30520;DHT22;17300;50.374;8.006;2022-08-19T10:26:27;48.80;23.30
30520;DHT22;17300;50.374;8.006;2022-08-19T10:28:55;48.80;23.30
30520;DHT22;17300;50.374;8.006;2022-08-19T10:31:25;48.80;23.30
30520;DHT22;17300;50.374;8.006;2022-08-19T10:33:53;48.90;23.30
30520;DHT22;17300;50.374;8.006;2022-08-19T10:36:26;49.00;23.30
30520;DHT22;17300;50.374;8.006;2022-08-19T10:38:55;48.80;22.60
30520;DHT22;17300;50.374;8.006;2022-08-19T10:41:27;48.30;21.90
30520;DHT22;17300;50.374;8.006;2022-08-19T10:43:55;47.70;21.70
30520;DHT22;17300;50.374;8.006;2022-08-19T10:46:25;47.00;21.80
30520;DHT22;17300;50.374;8.006;2022-08-19T10:48:52;46.20;22.30
30520;DHT22;17300;50.374;8.006;2022-08-19T10:51:20;45.60;23.10
30520;DHT22;17300;50.374;8.006;2022-08-19T10:54:05;45.30;23.70
30520;DHT22;17300;50.374;8.006;2022-08-19T10:56:34;45.10;24.00
30520;DHT22;17300;50.374;8.006;2022-08-19T10:59:19;45.10;24.20
30520;DHT22;17300;50.374;8.006;2022-08-19T11:01:47;45.20;24.00
30520;DHT22;17300;50.374;8.006;2022-08-19T11:04:16;45.30;24.10
30520;DHT22;17300;50.374;8.006;2022-08-19T11:06:43;45.30;24.10
30520;DHT22;17300;50.374;8.006;2022-08-19T11:09:13;45.50;23.90
30520;DHT22;17300;50.374;8.006;2022-08-19T11:11:42;45.60;24.00
30520;DHT22;17300;50.374;8.006;2022-08-19T11:14:10;45.70;23.80
30520;DHT22;17300;50.374;8.006;2022-08-19T11:16:38;45.60;23.30
30520;DHT22;17300;50.374;8.006;2022-08-19T11:19:06;45.40;23.10
30520;DHT22;17300;50.374;8.006;2022-08-19T11:21:36;45.20;23.20
30520;DHT22;17300;50.374;8.006;2022-08-19T11:24:05;45.00;23.50
30520;DHT22;17300;50.374;8.006;2022-08-19T11:26:33;44.80;23.10
30520;DHT22;17300;50.374;8.006;2022-08-19T11:29:02;44.60;23.10
30520;DHT22;17300;50.374;8.006;2022-08-19T11:31:31;44.30;23.40
30520;DHT22;17300;50.374;8.006;2022-08-19T11:34:00;44.10;23.50
30520;DHT22;17300;50.374;8.006;2022-08-19T11:36:28;43.90;23.10
30520;DHT22;17300;50.374;8.006;2022-08-19T11:38:55;43.40;22.90
30520;DHT22;17300;50.374;8.006;2022-08-19T11:41:23;43.00;23.00
30520;DHT22;17300;50.374;8.006;2022-08-19T11:43:50;42.50;23.10
30520;DHT22;17300;50.374;8.006;2022-08-19T11:46:22;42.10;23.50
30520;DHT22;17300;50.374;8.006;2022-08-19T11:49:06;41.80;23.80
30520;DHT22;17300;50.374;8.006;2022-08-19T11:51:35;41.50;24.10
30520;DHT22;17300;50.374;8.006;2022-08-19T11:54:04;41.20;24.10
30520;DHT22;17300;50.374;8.006;2022-08-19T11:56:32;41.00;24.30
30520;DHT22;17300;50.374;8.006;2022-08-19T11:59:00;40.90;24.50
30520;DHT22;17300;50.374;8.006;2022-08-19T12:01:29;40.70;24.50
30520;DHT22;17300;50.374;8.006;2022-08-19T12:03:57;40.50;24.50
30520;DHT22;17300;50.374;8.006;2022-08-19T12:06:26;40.40;24.60
30520;DHT22;17300;50.374;8.006;2022-08-19T12:08:54;40.30;24.60
30520;DHT22;17300;50.374;8.006;2022-08-19T12:11:21;40.10;24.70
30520;DHT22;17300;50.374;8.006;2022-08-19T12:13:48;40.00;24.50
30520;DHT22;17300;50.374;8.006;2022-08-19T12:16:18;39.70;24.70
30520;DHT22;17300;50.374;8.006;2022-08-19T12:18:47;39.50;24.80
30520;DHT22;17300;50.374;8.006;2022-08-19T12:21:18;39.20;24.80
30520;DHT22;17300;50.374;8.006;2022-08-19T12:23:49;38.90;24.80
30520;DHT22;17300;50.374;8.006;2022-08-19T12:26:17;38.60;25.10
30520;DHT22;17300;50.374;8.006;2022-08-19T12:28:44;38.30;25.40
30520;DHT22;17300;50.374;8.006;2022-08-19T12:31:11;38.10;25.70
30520;DHT22;17300;50.374;8.006;2022-08-19T12:33:38;37.80;25.80
30520;DHT22;17300;50.374;8.006;2022-08-19T12:36:11;37.60;25.80
30520;DHT22;17300;50.374;8.006;2022-08-19T12:38:39;37.30;26.10
30520;DHT22;17300;50.374;8.006;2022-08-19T12:41:09;37.10;26.50
30520;DHT22;17300;50.374;8.006;2022-08-19T12:43:38;36.90;26.60
30520;DHT22;17300;50.374;8.006;2022-08-19T12:46:06;36.70;26.70
30520;DHT22;17300;50.374;8.006;2022-08-19T12:48:33;36.50;26.90
30520;DHT22;17300;50.374;8.006;2022-08-19T12:51:00;36.30;26.60
30520;DHT22;17300;50.374;8.006;2022-08-19T12:53:28;36.20;26.80
30520;DHT22;17300;50.374;8.006;2022-08-19T12:55:55;36.10;27.10
30520;DHT22;17300;50.374;8.006;2022-08-19T12:58:23;36.00;27.30
30520;DHT22;17300;50.374;8.006;2022-08-19T13:00:50;35.90;27.40
30520;DHT22;17300;50.374;8.006;2022-08-19T13:03:17;35.90;27.60
30520;DHT22;17300;50.374;8.006;2022-08-19T13:05:44;35.90;27.50
30520;DHT22;17300;50.374;8.006;2022-08-19T13:08:10;35.80;27.30
30520;DHT22;17300;50.374;8.006;2022-08-19T13:10:39;35.80;27.60
30520;DHT22;17300;50.374;8.006;2022-08-19T13:13:07;35.80;27.40
30520;DHT22;17300;50.374;8.006;2022-08-19T13:15:37;35.80;27.70
30520;DHT22;17300;50.374;8.006;2022-08-19T13:18:05;35.80;27.90
30520;DHT22;17300;50.374;8.006;2022-08-19T13:20:35;35.90;28.00
30520;DHT22;17300;50.374;8.006;2022-08-19T13:23:08;35.90;28.00
30520;DHT22;17300;50.374;8.006;2022-08-19T13:29:05;35.80;27.60
30520;DHT22;17300;50.374;8.006;2022-08-19T13:31:49;35.80;27.50
30520;DHT22;17300;50.374;8.006;2022-08-19T13:34:34;35.80;28.30
30520;DHT22;17300;50.374;8.006;2022-08-19T13:37:03;35.70;27.60
30520;DHT22;17300;50.374;8.006;2022-08-19T13:39:31;35.60;27.70
30520;DHT22;17300;50.374;8.006;2022-08-19T13:41:58;35.50;27.80
30520;DHT22;17300;50.374;8.006;2022-08-19T13:44:28;35.50;27.80
30520;DHT22;17300;50.374;8.006;2022-08-19T13:47:00;35.30;27.70
30520;DHT22;17300;50.374;8.006;2022-08-19T13:49:32;35.20;27.90
30520;DHT22;17300;50.374;8.006;2022-08-19T13:51:59;35.10;27.90
30520;DHT22;17300;50.374;8.006;2022-08-19T13:54:31;34.90;28.00
30520;DHT22;17300;50.374;8.006;2022-08-19T13:57:18;34.80;28.00
30520;DHT22;17300;50.374;8.006;2022-08-19T14:05:50;34.60;28.20
30520;DHT22;17300;50.374;8.006;2022-08-19T14:08:30;34.50;28.10
30520;DHT22;17300;50.374;8.006;2022-08-19T14:11:21;34.40;28.20
30520;DHT22;17300;50.374;8.006;2022-08-19T14:13:53;34.40;28.30
30520;DHT22;17300;50.374;8.006;2022-08-19T14:16:27;34.40;28.30
30520;DHT22;17300;50.374;8.006;2022-08-19T14:18:57;34.40;28.20
30520;DHT22;17300;50.374;8.006;2022-08-19T14:21:28;34.40;28.80
30520;DHT22;17300;50.374;8.006;2022-08-19T14:24:12;34.30;28.60
30520;DHT22;17300;50.374;8.006;2022-08-19T14:30:11;34.30;29.00
30520;DHT22;17300;50.374;8.006;2022-08-19T14:32:52;34.30;29.20
30520;DHT22;17300;50.374;8.006;2022-08-19T14:35:48;34.30;29.00
30520;DHT22;17300;50.374;8.006;2022-08-19T14:38:23;34.40;28.90
30520;DHT22;17300;50.374;8.006;2022-08-19T14:41:14;34.30;28.90
30520;DHT22;17300;50.374;8.006;2022-08-19T14:43:46;34.30;29.40
30520;DHT22;17300;50.374;8.006;2022-08-19T14:46:14;34.30;28.90
30520;DHT22;17300;50.374;8.006;2022-08-19T14:48:46;34.20;28.80
30520;DHT22;17300;50.374;8.006;2022-08-19T14:51:16;34.10;28.60
30520;DHT22;17300;50.374;8.006;2022-08-19T14:53:43;34.10;28.50
30520;DHT22;17300;50.374;8.006;2022-08-19T14:56:12;34.00;28.50
30520;DHT22;17300;50.374;8.006;2022-08-19T14:58:40;33.90;28.50
30520;DHT22;17300;50.374;8.006;2022-08-19T15:01:08;33.80;28.40
30520;DHT22;17300;50.374;8.006;2022-08-19T15:03:35;33.80;28.50
30520;DHT22;17300;50.374;8.006;2022-08-19T15:06:04;33.70;28.30
30520;DHT22;17300;50.374;8.006;2022-08-19T15:08:33;33.60;28.20
30520;DHT22;17300;50.374;8.006;2022-08-19T15:11:02;33.50;28.40
30520;DHT22;17300;50.374;8.006;2022-08-19T15:13:29;33.50;28.50
30520;DHT22;17300;50.374;8.006;2022-08-19T15:15:59;33.40;28.60
30520;DHT22;17300;50.374;8.006;2022-08-19T15:18:28;33.30;28.80
30520;DHT22;17300;50.374;8.006;2022-08-19T15:21:00;33.30;28.80
30520;DHT22;17300;50.374;8.006;2022-08-19T15:23:43;33.20;28.80
30520;DHT22;17300;50.374;8.006;2022-08-19T15:26:10;33.10;28.80
30520;DHT22;17300;50.374;8.006;2022-08-19T15:28:39;33.00;29.50
30520;DHT22;17300;50.374;8.006;2022-08-19T15:31:06;32.90;29.00
30520;DHT22;17300;50.374;8.006;2022-08-19T15:33:34;32.80;29.10
30520;DHT22;17300;50.374;8.006;2022-08-19T15:36:02;32.70;29.20
30520;DHT22;17300;50.374;8.006;2022-08-19T15:38:31;32.70;29.30
30520;DHT22;17300;50.374;8.006;2022-08-19T15:41:00;32.60;29.30
30520;DHT22;17300;50.374;8.006;2022-08-19T15:43:49;32.50;29.30
30520;DHT22;17300;50.374;8.006;2022-08-19T15:46:17;32.40;29.10
30520;DHT22;17300;50.374;8.006;2022-08-19T15:48:45;32.30;29.20
30520;DHT22;17300;50.374;8.006;2022-08-19T15:51:11;32.30;29.80
30520;DHT22;17300;50.374;8.006;2022-08-19T15:53:38;32.20;29.40
30520;DHT22;17300;50.374;8.006;2022-08-19T15:56:07;32.20;29.60
30520;DHT22;17300;50.374;8.006;2022-08-19T15:58:34;32.10;29.60
30520;DHT22;17300;50.374;8.006;2022-08-19T16:01:19;32.10;29.70
30520;DHT22;17300;50.374;8.006;2022-08-19T16:04:03;32.00;29.80
30520;DHT22;17300;50.374;8.006;2022-08-19T16:06:49;31.90;29.80
30520;DHT22;17300;50.374;8.006;2022-08-19T16:09:17;31.90;29.90
30520;DHT22;17300;50.374;8.006;2022-08-19T16:11:46;31.80;29.70
30520;DHT22;17300;50.374;8.006;2022-08-19T16:14:14;31.80;29.50
30520;DHT22;17300;50.374;8.006;2022-08-19T16:16:41;31.70;29.30
30520;DHT22;17300;50.374;8.006;2022-08-19T16:19:11;31.70;29.10
30520;DHT22;17300;50.374;8.006;2022-08-19T16:21:40;31.60;29.10
30520;DHT22;17300;50.374;8.006;2022-08-19T16:24:09;31.60;29.20
30520;DHT22;17300;50.374;8.006;2022-08-19T16:26:37;31.50;29.10
30520;DHT22;17300;50.374;8.006;2022-08-19T16:29:05;31.50;29.20
30520;DHT22;17300;50.374;8.006;2022-08-19T16:31:33;31.40;29.10
30520;DHT22;17300;50.374;8.006;2022-08-19T16:34:00;31.40;29.30
30520;DHT22;17300;50.374;8.006;2022-08-19T16:36:32;31.30;29.30
30520;DHT22;17300;50.374;8.006;2022-08-19T16:38:59;31.30;29.50
30520;DHT22;17300;50.374;8.006;2022-08-19T16:41:27;31.30;29.60
30520;DHT22;17300;50.374;8.006;2022-08-19T16:43:54;31.20;29.70
30520;DHT22;17300;50.374;8.006;2022-08-19T16:46:23;31.20;29.80
30520;DHT22;17300;50.374;8.006;2022-08-19T16:48:57;31.20;29.80
30520;DHT22;17300;50.374;8.006;2022-08-19T16:51:25;31.10;29.80
30520;DHT22;17300;50.374;8.006;2022-08-19T16:53:52;31.10;29.80
30520;DHT22;17300;50.374;8.006;2022-08-19T16:56:20;31.10;29.90